Time;durP1;ratioP1;P1;durP2;ratioP2;P2;SDS_P1;SDS_P2;PMS_P1;PMS_P2;Temp;Humidity;BMP_temperature;BMP_pressure;BME280_temperature;BME280_humidity;BME280_pressure;Samples;Min_cycle;Max_cycle;Signal;HPM_P1;HPM_P2
2021/06/22 00:01:41;;;;;;;12.15;6.25;;;;;;;12.32;88.40;101788.72;4991620;28;20021;-58
2021/06/22 00:04:07;;;;;;;12.40;6.22;;;;;;;12.30;88.51;101787.88;4981484;28;20109;-59
2021/06/22 00:06:32;;;;;;;13.93;6.63;;;;;;;12.28;88.53;101797.78;4984636;28;20041;-59
2021/06/22 00:08:57;;;;;;;12.93;6.20;;;;;;;12.24;88.89;101796.19;4983648;28;20643;-60
2021/06/22 00:11:23;;;;;;;14.00;6.22;;;;;;;12.23;88.68;101805.16;4984887;28;20267;-62
2021/06/22 00:13:48;;;;;;;10.48;6.88;;;;;;;12.24;88.54;101801.53;4980654;28;20062;-61
2021/06/22 00:16:14;;;;;;;11.55;6.15;;;;;;;12.23;88.65;101797.13;5000772;28;20034;-59
2021/06/22 00:18:39;;;;;;;14.50;7.15;;;;;;;12.24;88.71;101798.88;4978913;28;20073;-60
2021/06/22 00:21:05;;;;;;;12.70;6.90;;;;;;;12.23;89.27;101805.16;4977936;28;20058;-60
2021/06/22 00:23:30;;;;;;;13.98;7.07;;;;;;;12.24;89.43;101812.25;4979282;28;20141;-59
2021/06/22 00:25:57;;;;;;;15.95;6.57;;;;;;;12.23;89.48;101821.19;4982570;28;20026;-59
2021/06/22 00:28:22;;;;;;;14.53;6.87;;;;;;;12.24;89.47;101825.63;4977030;28;20267;-59
2021/06/22 00:30:47;;;;;;;14.27;7.03;;;;;;;12.24;89.64;101821.13;4983991;28;20268;-59
2021/06/22 00:33:13;;;;;;;13.30;7.30;;;;;;;12.25;89.65;101816.66;4973864;28;20547;-59
2021/06/22 00:35:38;;;;;;;11.27;7.03;;;;;;;12.24;89.67;101830.97;4983868;28;20091;-60
2021/06/22 00:38:03;;;;;;;13.07;7.15;;;;;;;12.22;89.87;101815.00;4977320;28;20396;-60
2021/06/22 00:40:29;;;;;;;14.98;6.70;;;;;;;12.23;89.75;101822.06;4985301;28;20092;-60
2021/06/22 00:42:54;;;;;;;14.27;6.60;;;;;;;12.23;89.59;101811.34;4980677;28;20038;-60
2021/06/22 00:45:29;;;;;;;13.10;6.95;;;;;;;12.22;89.53;101808.75;4985924;28;20567;-59
2021/06/22 00:47:54;;;;;;;16.97;7.27;;;;;;;12.19;89.66;101793.69;4979077;28;20038;-59
2021/06/22 00:50:20;;;;;;;16.92;7.30;;;;;;;12.16;89.62;101789.34;4983989;28;20281;-60
2021/06/22 00:52:45;;;;;;;17.23;6.68;;;;;;;12.14;89.91;101785.00;4978049;28;20099;-59
2021/06/22 00:55:11;;;;;;;13.52;6.82;;;;;;;12.12;90.17;101787.72;4983072;28;20030;-58
2021/06/22 00:57:38;;;;;;;11.68;7.57;;;;;;;12.10;90.49;101775.34;4981989;28;20057;-59
2021/06/22 01:00:08;;;;;;;14.10;8.13;;;;;;;12.08;90.47;101775.44;4975373;28;20049;-59
2021/06/22 01:02:34;;;;;;;17.20;7.40;;;;;;;12.08;90.76;101770.09;4980261;28;20350;-59
2021/06/22 01:04:59;;;;;;;16.25;7.30;;;;;;;12.06;90.65;101766.59;4978722;28;20305;-60
2021/06/22 01:07:25;;;;;;;17.45;7.60;;;;;;;12.03;90.72;101774.72;4976657;28;20038;-59
2021/06/22 01:09:50;;;;;;;14.93;7.40;;;;;;;12.01;90.57;101785.50;4982169;28;20030;-58
2021/06/22 01:12:16;;;;;;;16.40;7.78;;;;;;;12.01;90.54;101784.66;4978921;28;20639;-58
2021/06/22 01:14:42;;;;;;;16.30;7.38;;;;;;;11.98;90.54;101784.75;4980390;28;20592;-59
2021/06/22 01:17:07;;;;;;;;;;;;;;;11.96;90.29;101787.47;4981119;28;20034;-59
2021/06/22 01:19:34;;;;;;;13.40;7.33;;;;;;;11.94;90.42;101788.47;4980491;28;20634;-59
2021/06/22 01:21:59;;;;;;;12.10;7.70;;;;;;;11.93;90.29;101797.44;4980427;28;20105;-60
2021/06/22 01:24:25;;;;;;;15.82;8.05;;;;;;;11.90;90.72;101797.53;4985682;28;20372;-59
2021/06/22 01:26:54;;;;;;;14.20;7.68;;;;;;;11.88;91.01;101801.13;4981100;28;20101;-61
2021/06/22 01:29:24;;;;;;;12.43;7.67;;;;;;;11.88;90.92;101811.84;4980206;28;20073;-59
2021/06/22 01:31:51;;;;;;;8.83;7.03;;;;;;;11.88;90.41;101811.84;4982364;28;20800;-58
2021/06/22 01:34:24;;;;;;;12.57;7.23;;;;;;;11.90;90.26;101814.47;4958939;28;20377;-59
2021/06/22 01:36:49;;;;;;;13.53;7.03;;;;;;;11.93;90.02;101813.47;5012886;28;20288;-60
2021/06/22 01:39:15;;;;;;;13.20;6.53;;;;;;;11.95;89.97;101816.97;4980930;28;20391;-59
2021/06/22 01:41:41;;;;;;;12.77;6.88;;;;;;;11.95;89.96;101808.94;4976745;28;20040;-60
2021/06/22 01:44:06;;;;;;;18.10;7.07;;;;;;;11.98;89.81;101811.50;4983767;28;20547;-59
2021/06/22 01:46:32;;;;;;;16.40;6.78;;;;;;;12.01;89.69;101817.59;4979924;28;20030;-60
2021/06/22 01:48:57;;;;;;;18.58;6.82;;;;;;;12.02;89.72;101822.00;4983444;28;20103;-59
2021/06/22 01:51:23;;;;;;;13.40;6.90;;;;;;;12.06;89.65;101830.78;4976889;28;20364;-59
2021/06/22 01:53:56;;;;;;;14.57;6.97;;;;;;;12.10;89.56;101828.84;4978634;28;20030;-59
2021/06/22 01:56:23;;;;;;;13.23;6.60;;;;;;;12.13;89.20;101828.75;4979417;28;20107;-59
2021/06/22 01:58:49;;;;;;;13.43;6.53;;;;;;;12.15;89.01;101829.53;4984484;28;20308;-60
2021/06/22 02:01:14;;;;;;;13.77;6.30;;;;;;;12.15;89.44;101825.06;4974515;28;20311;-60
2021/06/22 02:03:40;;;;;;;13.60;6.00;;;;;;;12.19;89.26;101832.00;4981324;28;20308;-59
2021/06/22 02:06:05;;;;;;;11.65;6.78;;;;;;;12.19;89.45;101829.34;4979272;28;20029;-59
2021/06/22 02:08:30;;;;;;;11.02;6.80;;;;;;;12.18;89.68;101819.56;4981046;28;20107;-60
2021/06/22 02:10:56;;;;;;;14.25;6.85;;;;;;;12.18;90.05;101811.53;4983171;28;20080;-60
2021/06/22 02:13:21;;;;;;;14.32;6.88;;;;;;;12.16;89.61;101813.44;4980142;28;20155;-59
2021/06/22 02:15:47;;;;;;;11.45;6.57;;;;;;;12.16;89.40;101821.44;4985309;28;20252;-60
2021/06/22 02:18:13;;;;;;;9.30;6.22;;;;;;;12.17;89.99;101822.31;4979883;28;20039;-58
2021/06/22 02:20:40;;;;;;;18.58;7.05;;;;;;;12.16;89.73;101820.56;4977262;28;20033;-60
2021/06/22 02:23:05;;;;;;;10.20;6.23;;;;;;;12.15;89.91;101819.72;4974081;28;20018;-59
2021/06/22 02:25:31;;;;;;;13.13;6.00;;;;;;;12.15;89.69;101819.72;4980906;28;20300;-59
2021/06/22 02:28:12;;;;;;;17.05;6.35;;;;;;;12.16;89.38;101815.22;4986152;28;20040;-59
2021/06/22 02:30:39;;;;;;;13.87;5.80;;;;;;;12.16;89.38;101812.53;4973269;28;20037;-59
2021/06/22 02:33:05;;;;;;;13.13;6.13;;;;;;;12.14;88.85;101815.28;4977824;28;20296;-60
2021/06/22 02:35:30;;;;;;;11.55;6.00;;;;;;;12.13;88.62;101802.00;4975010;28;20273;-60
2021/06/22 02:37:56;;;;;;;13.93;6.35;;;;;;;12.13;88.59;101810.88;4980031;28;20232;-59
2021/06/22 02:40:24;;;;;;;14.85;6.22;;;;;;;12.10;88.70;101811.00;4984414;28;20030;-59
2021/06/22 02:42:49;;;;;;;18.23;5.57;;;;;;;12.11;88.00;101809.19;4976151;28;20359;-60
2021/06/22 02:45:15;;;;;;;16.55;6.32;;;;;;;12.12;88.23;101810.94;4986410;28;20303;-59
2021/06/22 02:47:42;;;;;;;18.23;5.57;;;;;;;12.13;88.36;101810.00;4975318;28;20069;-59
2021/06/22 02:50:08;;;;;;;20.07;6.40;;;;;;;12.13;87.81;101808.19;4974494;28;20487;-59
2021/06/22 02:52:33;;;;;;;13.63;5.43;;;;;;;12.13;87.98;101813.53;4976562;28;20289;-60
2021/06/22 02:54:58;;;;;;;15.35;5.55;;;;;;;12.15;87.78;101814.34;4982926;28;20104;-60
2021/06/22 02:57:24;;;;;;;15.25;5.70;;;;;;;12.14;87.62;101807.25;4982007;28;20458;-61
2021/06/22 02:59:49;;;;;;;13.77;5.38;;;;;;;12.17;87.92;101820.53;4979144;28;20146;-59
2021/06/22 03:02:15;;;;;;;10.68;5.60;;;;;;;12.17;87.67;101820.53;4978817;28;20026;-59
2021/06/22 03:04:40;;;;;;;12.85;5.40;;;;;;;12.17;87.93;101824.97;4972001;28;21812;-59
2021/06/22 03:07:05;;;;;;;17.33;5.70;;;;;;;12.16;88.38;101821.44;4981249;28;20084;-59
2021/06/22 03:09:31;;;;;;;14.65;5.50;;;;;;;12.14;88.49;101828.66;4980179;28;20026;-59
2021/06/22 03:11:57;;;;;;;16.88;5.75;;;;;;;12.15;88.63;101830.41;4981000;28;20346;-58
2021/06/22 03:14:23;;;;;;;20.17;6.10;;;;;;;12.15;88.65;101833.09;4978329;28;20033;-58
2021/06/22 03:16:49;;;;;;;14.73;6.20;;;;;;;12.14;88.95;101836.69;4975659;28;20057;-59
2021/06/22 03:19:14;;;;;;;25.38;5.95;;;;;;;12.15;88.76;101837.53;4979823;28;20356;-59
2021/06/22 03:21:43;;;;;;;21.08;5.45;;;;;;;12.14;88.45;101844.72;4974732;28;20026;-60
2021/06/22 03:24:10;;;;;;;12.50;5.57;;;;;;;12.14;88.65;101847.38;4980128;28;20342;-59
2021/06/22 03:26:36;;;;;;;19.97;7.00;;;;;;;12.15;88.92;101842.91;4980961;28;20383;-59
2021/06/22 03:29:01;;;;;;;14.45;5.72;;;;;;;12.14;88.73;101851.88;4979661;28;20287;-59
2021/06/22 03:31:26;;;;;;;14.82;6.57;;;;;;;12.13;88.54;101853.66;4985279;28;20586;-59
2021/06/22 03:33:52;;;;;;;12.60;6.05;;;;;;;12.13;88.67;101860.84;4975036;28;20428;-59
2021/06/22 03:36:17;;;;;;;20.58;6.68;;;;;;;12.13;88.51;101860.84;4982960;28;20626;-59
2021/06/22 03:38:42;;;;;;;14.45;5.75;;;;;;;12.13;88.28;101859.00;4977685;28;20088;-60
2021/06/22 03:41:08;;;;;;;18.33;5.90;;;;;;;12.14;88.27;101862.56;4984941;28;20048;-59
2021/06/22 03:43:33;;;;;;;21.55;6.72;;;;;;;12.13;88.22;101864.38;4978970;28;20327;-59
2021/06/22 03:45:59;;;;;;;15.13;6.18;;;;;;;12.12;87.82;101865.28;4978135;28;20777;-58
2021/06/22 03:48:24;;;;;;;16.63;6.28;;;;;;;12.12;87.99;101867.97;4974323;28;20483;-59
2021/06/22 03:50:50;;;;;;;16.58;6.30;;;;;;;12.13;87.93;101868.84;4981380;28;20106;-59
2021/06/22 03:53:15;;;;;;;15.10;5.97;;;;;;;12.14;87.73;101871.47;4975964;28;20105;-59
2021/06/22 03:55:40;;;;;;;22.40;6.68;;;;;;;12.17;87.54;101867.78;4975343;28;20038;-59
2021/06/22 03:58:06;;;;;;;16.20;5.80;;;;;;;12.18;87.73;101869.53;4984163;28;20463;-59
2021/06/22 04:00:32;;;;;;;15.23;6.68;;;;;;;12.22;86.66;101870.28;4977757;28;20076;-59
2021/06/22 04:02:59;;;;;;;17.23;6.55;;;;;;;12.23;86.58;101861.31;4979564;28;20494;-60
2021/06/22 04:05:29;;;;;;;14.97;7.17;;;;;;;12.26;86.50;101853.19;4985545;28;20044;-59
2021/06/22 04:07:55;;;;;;;14.67;7.57;;;;;;;12.33;85.13;101852.00;4984417;28;20292;-59
2021/06/22 04:10:20;;;;;;;20.45;9.30;;;;;;;12.38;84.11;101855.34;4985609;28;20661;-58
2021/06/22 04:12:46;;;;;;;18.67;9.65;;;;;;;12.42;83.77;101848.91;4975856;28;20034;-60
2021/06/22 04:15:12;;;;;;;23.05;9.05;;;;;;;12.52;83.55;101846.72;4982612;28;20102;-59
2021/06/22 04:17:37;;;;;;;17.13;9.93;;;;;;;12.58;82.77;101843.78;4977637;28;20100;-59
2021/06/22 04:20:04;;;;;;;22.70;10.55;;;;;;;12.61;82.46;101849.00;4987325;28;20460;-59
2021/06/22 04:22:29;;;;;;;19.83;10.43;;;;;;;12.61;82.33;101854.34;4979732;28;20259;-60
2021/06/22 04:24:55;;;;;;;20.52;12.05;;;;;;;12.63;81.90;101851.63;4979360;28;20852;-60
2021/06/22 04:27:20;;;;;;;20.50;11.55;;;;;;;12.62;81.01;101853.41;4983938;28;20518;-59
2021/06/22 04:29:47;;;;;;;23.00;11.70;;;;;;;12.57;81.10;101862.56;4980279;28;20399;-60
2021/06/22 04:32:12;;;;;;;19.90;12.10;;;;;;;12.58;81.25;101864.31;4983527;28;20309;-59
2021/06/22 04:34:38;;;;;;;23.88;11.43;;;;;;;12.58;81.24;101857.16;4980283;28;20375;-59
2021/06/22 04:37:03;;;;;;;17.27;12.60;;;;;;;12.58;80.68;101856.28;4980857;28;20495;-58
2021/06/22 04:39:28;;;;;;;19.75;12.48;;;;;;;12.56;81.47;101861.72;4979784;28;20037;-60
2021/06/22 04:41:54;;;;;;;26.10;12.70;;;;;;;12.58;80.84;101864.31;4983219;28;20128;-60
2021/06/22 04:44:20;;;;;;;22.50;12.30;;;;;;;12.62;81.14;101865.94;4982671;28;20018;-59
2021/06/22 04:46:45;;;;;;;22.63;12.90;;;;;;;12.59;80.80;101866.94;4978580;28;20041;-59
2021/06/22 04:49:10;;;;;;;23.88;12.68;;;;;;;12.58;81.48;101873.22;4987207;28;20065;-59
2021/06/22 04:51:36;;;;;;;25.67;15.32;;;;;;;12.60;80.47;101859.78;4976232;28;20080;-58
2021/06/22 04:54:01;;;;;;;21.50;12.88;;;;;;;12.64;79.86;101874.78;4979641;28;20060;-58
2021/06/22 04:56:27;;;;;;;18.50;13.25;;;;;;;12.70;80.02;101874.50;4979912;28;20062;-60
2021/06/22 04:58:55;;;;;;;22.98;13.50;;;;;;;12.79;79.44;101876.81;4980551;28;20042;-60
2021/06/22 05:01:21;;;;;;;21.10;13.47;;;;;;;12.82;79.06;101879.34;4977223;28;20041;-58
2021/06/22 05:03:46;;;;;;;22.55;13.30;;;;;;;12.96;78.77;101875.16;4979318;28;20938;-60
2021/06/22 05:06:12;;;;;;;23.45;12.77;;;;;;;13.10;78.48;101880.78;4983995;28;20073;-60
2021/06/22 05:08:38;;;;;;;25.75;13.77;;;;;;;13.06;79.01;101883.69;4979113;28;20762;-59
2021/06/22 05:11:05;;;;;;;21.50;13.00;;;;;;;13.07;78.75;101893.44;4980787;28;20035;-58
2021/06/22 05:13:30;;;;;;;25.80;13.13;;;;;;;13.19;78.58;101898.28;4973624;28;20285;-59
2021/06/22 05:15:56;;;;;;;24.17;12.52;;;;;;;13.35;77.17;101902.94;4985325;28;20852;-60
2021/06/22 05:18:21;;;;;;;19.85;12.43;;;;;;;13.24;77.10;101904.28;4980318;28;20390;-60
2021/06/22 05:20:46;;;;;;;21.45;12.90;;;;;;;13.17;77.94;101904.66;4978221;28;20018;-59
2021/06/22 05:23:12;;;;;;;21.77;13.20;;;;;;;13.23;77.62;101910.59;4984286;28;20120;-59
2021/06/22 05:25:37;;;;;;;23.88;13.90;;;;;;;13.36;77.64;101916.28;4975695;28;20715;-58
2021/06/22 05:28:03;;;;;;;22.83;13.45;;;;;;;13.39;77.31;101921.53;4987765;28;20043;-59
2021/06/22 05:30:28;;;;;;;23.92;13.23;;;;;;;13.40;76.65;101909.88;4977211;28;20013;-60
2021/06/22 05:32:54;;;;;;;25.75;13.48;;;;;;;13.42;75.98;101916.03;4979000;28;20030;-59
2021/06/22 05:35:19;;;;;;;17.63;12.30;;;;;;;13.58;75.51;101918.88;4982880;28;20129;-59
2021/06/22 05:37:45;;;;;;;21.52;11.80;;;;;;;13.57;74.46;101913.56;4982700;28;22224;-59
2021/06/22 05:40:11;;;;;;;25.50;11.63;;;;;;;13.57;74.98;101926.97;4978837;28;20028;-60
2021/06/22 05:42:36;;;;;;;20.38;11.30;;;;;;;13.52;74.70;101920.97;4981115;28;20737;-59
2021/06/22 05:45:04;;;;;;;20.15;11.32;;;;;;;13.69;73.15;101918.38;4982583;28;20112;-61
2021/06/22 05:47:29;;;;;;;16.53;10.83;;;;;;;14.07;72.02;101914.81;4977504;28;20037;-58
2021/06/22 05:49:56;;;;;;;21.27;10.90;;;;;;;14.16;70.49;101919.75;4981951;28;20289;-59
2021/06/22 05:52:21;;;;;;;16.70;10.87;;;;;;;14.31;71.09;101915.47;4976317;28;20026;-58
2021/06/22 05:54:47;;;;;;;20.02;11.40;;;;;;;14.34;68.99;101917.97;4976089;28;20303;-59
2021/06/22 05:57:12;;;;;;;22.80;10.65;;;;;;;14.20;68.92;101923.16;4979283;28;20522;-59
2021/06/22 05:59:38;;;;;;;19.65;10.65;;;;;;;14.09;69.17;101921.88;4976245;28;20446;-59
2021/06/22 06:02:03;;;;;;;18.65;10.48;;;;;;;14.20;67.81;101912.41;4983896;28;20025;-58
2021/06/22 06:04:29;;;;;;;20.40;10.60;;;;;;;14.53;67.60;101917.06;4974907;28;20029;-60
2021/06/22 06:06:55;;;;;;;15.95;9.07;;;;;;;14.55;66.83;101923.25;4980512;28;21287;-60
2021/06/22 06:09:21;;;;;;;;;;;;;;;14.67;65.94;101922.66;4978222;28;20038;-60
2021/06/22 06:11:46;;;;;;;18.60;9.80;;;;;;;15.04;64.99;101925.28;4979729;28;20469;-60
2021/06/22 06:14:11;;;;;;;16.83;9.32;;;;;;;15.45;63.73;101913.25;4978672;28;20845;-59
2021/06/22 06:16:37;;;;;;;14.50;8.93;;;;;;;15.51;63.08;101913.81;4976772;28;20018;-59
2021/06/22 06:19:02;;;;;;;17.85;9.05;;;;;;;15.43;62.38;101923.22;4991787;28;20056;-60
2021/06/22 06:21:28;;;;;;;19.30;8.90;;;;;;;15.60;61.27;101917.81;4971981;28;20435;-59
2021/06/22 06:23:56;;;;;;;17.45;9.52;;;;;;;15.30;61.17;101917.63;4978501;28;20038;-58
2021/06/22 06:26:23;;;;;;;18.97;9.07;;;;;;;15.25;62.06;101920.56;4976157;28;20038;-59
2021/06/22 06:28:54;;;;;;;14.30;8.77;;;;;;;15.08;61.05;101925.97;4975275;28;20310;-60
2021/06/22 06:31:21;;;;;;;19.37;9.60;;;;;;;15.40;60.16;101926.09;4979980;28;20293;-59
2021/06/22 06:33:48;;;;;;;18.07;8.27;;;;;;;15.57;58.94;101923.34;4972046;28;20303;-58
2021/06/22 06:36:14;;;;;;;;;;;;;;;16.09;56.78;101919.63;4985042;28;20291;-59
2021/06/22 06:38:39;;;;;;;13.30;8.27;;;;;;;16.80;56.56;101933.50;4972731;28;19921;-60
2021/06/22 06:41:04;;;;;;;15.52;8.15;;;;;;;16.58;54.72;101925.84;4976268;28;20022;-59
2021/06/22 06:43:30;;;;;;;13.50;8.18;;;;;;;15.96;56.65;101927.50;4970814;28;20103;-60
2021/06/22 06:45:55;;;;;;;17.13;8.13;;;;;;;15.54;57.82;101926.22;4974866;28;20060;-60
2021/06/22 06:48:22;;;;;;;14.80;8.68;;;;;;;15.16;59.07;101932.69;4967868;28;20344;-61
2021/06/22 06:50:47;;;;;;;17.27;8.00;;;;;;;15.26;58.83;101929.50;4965745;28;20125;-60
2021/06/22 06:53:12;;;;;;;21.25;9.25;;;;;;;15.46;56.39;101932.00;4984063;28;20273;-58
2021/06/22 06:55:43;;;;;;;14.15;8.48;;;;;;;15.44;57.66;101936.59;4974335;28;20030;-58
2021/06/22 06:58:09;;;;;;;17.87;8.40;;;;;;;15.74;57.93;101932.31;4977462;28;20041;-59
2021/06/22 07:00:36;;;;;;;17.73;8.63;;;;;;;16.43;55.16;101932.97;4973435;28;20277;-59
2021/06/22 07:03:03;;;;;;;16.00;8.30;;;;;;;17.16;53.85;101931.41;4979757;28;20100;-59
2021/06/22 07:05:29;;;;;;;12.17;7.40;;;;;;;18.00;49.15;101932.50;4978477;28;21270;-59
2021/06/22 07:07:54;;;;;;;12.07;7.30;;;;;;;17.77;50.01;101936.63;4979560;28;20315;-58
2021/06/22 07:10:20;;;;;;;11.23;7.35;;;;;;;18.46;48.41;101945.69;4979656;28;20308;-59
2021/06/22 07:12:46;;;;;;;17.27;7.00;;;;;;;19.02;47.54;101947.38;4976895;28;20060;-59
2021/06/22 07:15:12;;;;;;;15.87;7.63;;;;;;;19.81;45.56;101949.97;4982599;28;20038;-59
2021/06/22 07:17:38;;;;;;;10.18;6.60;;;;;;;19.80;43.94;101964.50;4975442;28;20291;-60
2021/06/22 07:20:03;;;;;;;;;;;;;;;20.11;44.06;101956.00;4977365;28;20026;-59
2021/06/22 07:22:29;;;;;;;13.93;7.27;;;;;;;20.11;42.74;101954.19;4973487;28;19928;-59
2021/06/22 07:24:54;;;;;;;;;;;;;;;20.60;42.76;101956.91;4976387;28;20045;-59
2021/06/22 07:27:19;;;;;;;10.07;5.87;;;;;;;21.17;39.61;101966.16;4980767;28;19925;-60
2021/06/22 07:29:45;;;;;;;;;;;;;;;21.06;40.30;101966.13;4975476;28;20613;-58
2021/06/22 07:32:10;;;;;;;12.93;6.63;;;;;;;21.06;41.48;101974.28;4977932;28;19921;-59
2021/06/22 07:34:36;;;;;;;;;;;;;;;21.37;39.79;101953.72;4974228;28;20037;-59
2021/06/22 07:37:01;;;;;;;10.83;6.73;;;;;;;21.16;39.09;101959.88;4976584;28;19917;-58
2021/06/22 07:39:28;;;;;;;14.93;7.30;;;;;;;21.96;41.53;101958.09;4973291;28;20033;-59
2021/06/22 07:41:54;;;;;;;9.00;5.70;;;;;;;22.44;36.85;101961.50;4979680;28;20525;-59
2021/06/22 07:44:19;;;;;;;9.10;5.40;;;;;;;22.27;37.43;101961.00;4980472;28;21100;-59
2021/06/22 07:46:44;;;;;;;8.83;5.87;;;;;;;22.02;38.46;101966.72;4980930;28;20366;-59
2021/06/22 07:49:10;;;;;;;12.53;6.70;;;;;;;21.81;37.65;101964.78;4984666;28;20057;-60
2021/06/22 07:51:35;;;;;;;15.67;6.43;;;;;;;21.50;38.29;101961.78;4973584;28;20065;-59
2021/06/22 07:54:00;;;;;;;11.37;6.83;;;;;;;21.92;39.21;101961.19;4982029;28;20030;-58
2021/06/22 07:56:26;;;;;;;10.13;6.50;;;;;;;22.24;36.91;101961.25;4970968;28;20618;-59
2021/06/22 07:58:51;;;;;;;13.77;7.20;;;;;;;22.13;37.92;101953.16;4983448;28;20022;-60
2021/06/22 08:01:17;;;;;;;12.33;6.30;;;;;;;21.53;39.62;101953.41;4977626;28;20065;-58
2021/06/22 08:03:43;;;;;;;12.33;6.30;;;;;;;21.49;38.16;101952.75;4981714;28;20045;-59
2021/06/22 08:06:08;;;;;;;12.63;5.70;;;;;;;21.93;36.47;101952.91;4989047;28;20045;-60
2021/06/22 08:08:33;;;;;;;10.50;5.93;;;;;;;22.41;37.81;101950.88;4972085;28;20288;-59
2021/06/22 08:10:59;;;;;;;10.53;6.40;;;;;;;22.25;36.62;101938.53;4980660;28;20378;-59
2021/06/22 08:13:25;;;;;;;13.27;7.23;;;;;;;21.02;39.15;101952.78;4974829;28;20551;-60
2021/06/22 08:15:51;;;;;;;11.37;7.00;;;;;;;19.85;41.30;101956.94;4979227;28;20069;-59
2021/06/22 08:18:17;;;;;;;13.17;6.87;;;;;;;19.07;43.76;101956.06;4976440;28;20034;-60
2021/06/22 08:20:44;;;;;;;10.17;6.33;;;;;;;18.70;44.72;101952.25;4977668;28;20084;-59
2021/06/22 08:23:09;;;;;;;10.13;5.83;;;;;;;18.78;42.62;101955.31;5009574;28;20198;-59
2021/06/22 08:25:35;;;;;;;;;;;;;;;18.70;43.48;101957.66;4977268;28;20303;-59
2021/06/22 08:28:00;;;;;;;11.67;6.37;;;;;;;18.69;44.06;101951.41;4978597;28;20267;-58
2021/06/22 08:30:26;;;;;;;;;;;;;;;18.66;44.16;101954.28;4969875;28;20113;-58
2021/06/22 08:32:52;;;;;;;11.90;7.33;;;;;;;18.95;45.42;101952.34;4977627;28;19953;-58
2021/06/22 08:35:20;;;;;;;10.13;6.25;;;;;;;19.21;43.49;101946.13;4980569;28;20462;-59
2021/06/22 08:37:45;;;;;;;14.57;6.23;;;;;;;19.40;43.67;101951.94;4977121;28;20046;-60
2021/06/22 08:40:12;;;;;;;10.20;6.68;;;;;;;19.44;44.01;101949.91;4979580;28;20486;-59
2021/06/22 08:42:40;;;;;;;13.40;6.70;;;;;;;19.12;43.54;101956.59;4973667;28;20535;-60
2021/06/22 08:45:08;;;;;;;16.70;7.10;;;;;;;18.39;44.92;101962.41;4982919;28;20666;-59
2021/06/22 08:47:33;;;;;;;12.13;6.80;;;;;;;18.50;47.87;101949.91;4973539;28;20376;-60
2021/06/22 08:49:59;;;;;;;13.68;6.40;;;;;;;19.76;43.71;101952.16;4976053;28;20764;-59
2021/06/22 08:52:25;;;;;;;;;;;;;;;20.11;43.74;101961.44;4980483;28;20038;-60
2021/06/22 08:54:52;;;;;;;12.87;7.17;;;;;;;20.34;42.89;101957.03;4972261;28;19917;-59
2021/06/22 08:57:17;;;;;;;10.93;6.77;;;;;;;20.33;42.56;101956.16;4984977;28;20026;-59
2021/06/22 08:59:42;;;;;;;;;;;;;;;20.39;43.16;101966.53;4978619;28;20068;-60
2021/06/22 09:02:08;;;;;;;11.83;6.37;;;;;;;20.22;42.98;101956.09;4980433;28;19967;-61
2021/06/22 09:04:33;;;;;;;;;;;;;;;20.00;43.25;101954.09;4978887;28;20222;-60
2021/06/22 09:06:58;;;;;;;16.80;6.70;;;;;;;20.25;42.67;101961.28;4980815;28;19921;-59
2021/06/22 09:09:32;;;;;;;;;;;;;;;20.31;44.47;101955.41;4981726;28;20026;-60
2021/06/22 09:12:05;;;;;;;15.70;6.90;;;;;;;20.74;40.78;101956.75;4981924;28;19956;-61
2021/06/22 09:14:35;;;;;;;13.17;6.40;;;;;;;19.91;40.98;101966.47;4983449;28;20030;-61
2021/06/22 09:17:01;;;;;;;10.90;5.43;;;;;;;19.13;43.28;101966.44;4972731;28;20037;-61
2021/06/22 09:19:27;;;;;;;11.33;5.90;;;;;;;18.87;43.96;101951.09;4981731;28;20152;-60
2021/06/22 09:21:53;;;;;;;17.45;6.97;;;;;;;19.46;47.03;101967.75;4977055;28;20962;-61
2021/06/22 09:24:26;;;;;;;22.97;6.53;;;;;;;19.46;46.49;101954.22;4981478;28;20238;-60
2021/06/22 09:26:52;;;;;;;10.40;5.93;;;;;;;20.48;44.23;101964.13;4976844;28;20292;-58
2021/06/22 09:29:20;;;;;;;;;;;;;;;20.36;42.70;101949.63;4979993;28;20033;-60
2021/06/22 09:31:55;;;;;;;15.30;6.50;;;;;;;19.83;44.71;101952.59;5006457;28;19921;-60
2021/06/22 09:34:22;;;;;;;10.77;5.70;;;;;;;19.51;43.98;101950.34;4990380;28;20026;-59
2021/06/22 09:36:52;;;;;;;13.00;7.10;;;;;;;19.20;44.97;101947.09;4979013;28;20276;-59
2021/06/22 09:39:18;;;;;;;15.57;6.90;;;;;;;18.55;44.58;101954.13;4979076;28;20117;-59
2021/06/22 09:41:44;;;;;;;12.20;6.60;;;;;;;17.96;47.16;101947.16;4983047;28;20766;-59
2021/06/22 09:44:14;;;;;;;10.98;6.15;;;;;;;17.98;48.28;101935.28;4976845;28;20283;-59
2021/06/22 09:46:47;;;;;;;12.10;5.70;;;;;;;18.05;47.45;101951.97;4981563;28;20034;-63
2021/06/22 09:49:17;;;;;;;12.57;5.60;;;;;;;18.08;47.59;101946.38;4972644;28;20285;-63
2021/06/22 09:54:28;;;;;;;10.00;5.65;;;;;;;19.28;44.29;101950.13;4971752;28;20372;-60
2021/06/22 09:57:14;;;;;;;8.07;5.53;;;;;;;19.53;43.53;101940.28;4975383;28;20045;-60
2021/06/22 09:59:51;;;;;;;12.33;5.37;;;;;;;19.90;44.49;101948.50;4979228;28;20391;-59
2021/06/22 10:02:17;;;;;;;11.73;5.15;;;;;;;19.11;44.69;101952.16;4972705;28;20284;-59
2021/06/22 10:04:47;;;;;;;7.53;4.57;;;;;;;19.71;46.35;101959.75;4980995;28;20407;-59
2021/06/22 10:07:14;;;;;;;10.40;5.03;;;;;;;20.09;41.53;101954.28;4972712;28;20306;-59
2021/06/22 10:09:41;;;;;;;8.80;5.27;;;;;;;20.45;42.85;101958.94;4978995;28;20293;-59
2021/06/22 10:12:08;;;;;;;12.70;5.57;;;;;;;19.59;42.36;101959.63;4980609;28;20033;-59
2021/06/22 10:14:36;;;;;;;15.93;5.20;;;;;;;19.19;44.47;101962.47;4978673;28;20033;-60
2021/06/22 10:17:05;;;;;;;9.27;5.07;;;;;;;18.89;44.43;101968.94;4976462;28;20291;-58
2021/06/22 10:19:31;;;;;;;16.60;5.80;;;;;;;18.89;46.18;101973.50;4973187;28;20407;-60
2021/06/22 10:21:57;;;;;;;8.70;4.70;;;;;;;18.60;46.18;101965.53;4978104;28;20782;-59
2021/06/22 10:24:23;;;;;;;7.93;4.68;;;;;;;19.09;45.00;101962.22;4975860;28;20726;-59
2021/06/22 10:26:49;;;;;;;9.20;4.53;;;;;;;19.21;44.92;101957.78;4997347;28;20038;-61
2021/06/22 10:29:19;;;;;;;12.27;4.68;;;;;;;19.25;43.93;101961.16;4978317;28;20763;-60
2021/06/22 10:31:45;;;;;;;9.07;4.47;;;;;;;18.62;46.61;101960.88;4974695;28;20251;-59
2021/06/22 10:34:11;;;;;;;9.90;4.90;;;;;;;18.51;47.07;101970.56;4973698;28;20281;-59
2021/06/22 10:36:44;;;;;;;10.43;4.63;;;;;;;18.23;47.12;101962.56;4973569;28;20655;-59
2021/06/22 10:39:17;;;;;;;10.93;4.63;;;;;;;18.24;46.96;101969.69;4980366;28;20072;-60
2021/06/22 10:41:44;;;;;;;10.27;4.70;;;;;;;18.43;47.11;101969.34;4979611;28;20693;-59
2021/06/22 10:44:26;;;;;;;11.13;4.63;;;;;;;18.66;44.94;101973.22;4975292;28;20718;-58
2021/06/22 10:47:16;;;;;;;7.83;4.53;;;;;;;19.33;44.58;101966.03;4977207;28;20383;-59
2021/06/22 10:49:59;;;;;;;10.33;4.73;;;;;;;19.27;45.11;101970.03;4979660;28;20354;-60
2021/06/22 10:52:43;;;;;;;9.57;4.20;;;;;;;19.33;45.59;101976.84;4973576;28;20810;-59
2021/06/22 10:55:09;;;;;;;10.33;4.80;;;;;;;19.10;45.21;101977.47;4982454;28;20289;-59
2021/06/22 10:58:01;;;;;;;15.07;4.73;;;;;;;18.62;46.90;101974.41;4976442;28;20300;-59
2021/06/22 11:00:28;;;;;;;10.03;5.17;;;;;;;18.84;48.39;101971.09;4977365;28;20572;-60
2021/06/22 11:03:08;;;;;;;13.03;6.00;;;;;;;19.04;50.40;101968.94;4977425;28;20324;-59
2021/06/22 11:05:35;;;;;;;13.73;5.30;;;;;;;19.00;48.19;101965.56;4979580;28;20297;-60
2021/06/22 11:08:12;;;;;;;11.50;5.97;;;;;;;18.96;50.12;101966.72;4978129;28;20385;-58
2021/06/22 11:10:39;;;;;;;17.37;6.30;;;;;;;18.73;51.50;101963.72;4976084;28;20295;-59
2021/06/22 11:13:05;;;;;;;12.57;6.23;;;;;;;19.04;51.52;101964.38;4981765;28;20315;-59
2021/06/22 11:15:49;;;;;;;12.27;6.63;;;;;;;19.31;52.75;101963.41;4978601;28;20293;-59
2021/06/22 11:18:18;;;;;;;11.73;6.30;;;;;;;20.16;49.86;101959.25;4976074;28;20677;-60
2021/06/22 11:20:53;;;;;;;20.20;7.47;;;;;;;21.12;48.82;101962.94;4982265;28;20288;-60